sensor_id;sensor_type;location;lat;lon;timestamp;P1;durP1;ratioP1;P2;durP2;ratioP2
68256;SDS011;55069;51.568;4.656;2022-10-31T00:02:04;16.70;;;9.97;;
68256;SDS011;55069;51.568;4.656;2022-10-31T00:04:29;16.83;;;10.37;;
68256;SDS011;55069;51.568;4.656;2022-10-31T00:06:55;14.30;;;10.07;;
68256;SDS011;55069;51.568;4.656;2022-10-31T00:09:20;22.20;;;11.07;;
68256;SDS011;55069;51.568;4.656;2022-10-31T00:11:46;23.15;;;9.45;;
68256;SDS011;55069;51.568;4.656;2022-10-31T00:14:12;16.90;;;10.65;;
68256;SDS011;55069;51.568;4.656;2022-10-31T00:16:37;20.33;;;11.57;;
68256;SDS011;55069;51.568;4.656;2022-10-31T00:19:04;19.07;;;10.53;;
68256;SDS011;55069;51.568;4.656;2022-10-31T00:21:31;17.65;;;10.55;;
68256;SDS011;55069;51.568;4.656;2022-10-31T00:23:57;19.13;;;9.55;;
68256;SDS011;55069;51.568;4.656;2022-10-31T00:26:24;18.50;;;10.93;;
68256;SDS011;55069;51.568;4.656;2022-10-31T00:28:49;18.20;;;10.17;;
68256;SDS011;55069;51.568;4.656;2022-10-31T00:31:16;22.85;;;10.98;;
68256;SDS011;55069;51.568;4.656;2022-10-31T00:33:42;14.15;;;9.40;;
68256;SDS011;55069;51.568;4.656;2022-10-31T00:36:10;16.77;;;10.93;;
68256;SDS011;55069;51.568;4.656;2022-10-31T00:38:39;16.48;;;9.88;;
68256;SDS011;55069;51.568;4.656;2022-10-31T00:41:06;21.00;;;10.70;;
68256;SDS011;55069;51.568;4.656;2022-10-31T00:43:31;18.90;;;10.87;;
68256;SDS011;55069;51.568;4.656;2022-10-31T00:45:57;21.58;;;10.57;;
68256;SDS011;55069;51.568;4.656;2022-10-31T00:48:23;23.23;;;12.40;;
68256;SDS011;55069;51.568;4.656;2022-10-31T00:50:49;23.38;;;9.85;;
68256;SDS011;55069;51.568;4.656;2022-10-31T00:53:14;27.70;;;11.07;;
68256;SDS011;55069;51.568;4.656;2022-10-31T00:55:40;18.90;;;10.40;;
68256;SDS011;55069;51.568;4.656;2022-10-31T00:58:06;20.80;;;10.03;;
68256;SDS011;55069;51.568;4.656;2022-10-31T01:00:32;15.27;;;10.48;;
68256;SDS011;55069;51.568;4.656;2022-10-31T01:02:57;16.85;;;10.15;;
68256;SDS011;55069;51.568;4.656;2022-10-31T01:05:23;16.67;;;10.67;;
68256;SDS011;55069;51.568;4.656;2022-10-31T01:07:48;17.77;;;10.20;;
68256;SDS011;55069;51.568;4.656;2022-10-31T01:10:14;18.60;;;10.13;;
68256;SDS011;55069;51.568;4.656;2022-10-31T01:12:43;14.73;;;9.27;;
68256;SDS011;55069;51.568;4.656;2022-10-31T01:15:11;13.85;;;9.43;;
68256;SDS011;55069;51.568;4.656;2022-10-31T01:17:38;18.88;;;11.88;;
68256;SDS011;55069;51.568;4.656;2022-10-31T01:20:05;17.20;;;10.67;;
68256;SDS011;55069;51.568;4.656;2022-10-31T01:22:31;17.00;;;9.55;;
68256;SDS011;55069;51.568;4.656;2022-10-31T01:24:59;17.73;;;10.27;;
68256;SDS011;55069;51.568;4.656;2022-10-31T01:27:25;15.98;;;10.63;;
68256;SDS011;55069;51.568;4.656;2022-10-31T01:29:51;14.10;;;8.97;;
68256;SDS011;55069;51.568;4.656;2022-10-31T01:32:16;18.52;;;8.90;;
68256;SDS011;55069;51.568;4.656;2022-10-31T01:34:44;21.00;;;9.13;;
68256;SDS011;55069;51.568;4.656;2022-10-31T01:37:11;18.13;;;9.90;;
68256;SDS011;55069;51.568;4.656;2022-10-31T01:39:37;14.77;;;9.68;;
68256;SDS011;55069;51.568;4.656;2022-10-31T01:42:02;16.03;;;10.17;;
68256;SDS011;55069;51.568;4.656;2022-10-31T01:46:55;20.90;;;11.60;;
68256;SDS011;55069;51.568;4.656;2022-10-31T01:49:43;17.83;;;11.07;;
68256;SDS011;55069;51.568;4.656;2022-10-31T01:57:32;16.55;;;10.77;;
68256;SDS011;55069;51.568;4.656;2022-10-31T02:00:01;18.73;;;11.88;;
68256;SDS011;55069;51.568;4.656;2022-10-31T02:02:38;21.77;;;12.45;;
68256;SDS011;55069;51.568;4.656;2022-10-31T02:05:05;21.47;;;11.63;;
68256;SDS011;55069;51.568;4.656;2022-10-31T02:07:37;19.15;;;10.63;;
68256;SDS011;55069;51.568;4.656;2022-10-31T02:10:28;20.05;;;11.23;;
68256;SDS011;55069;51.568;4.656;2022-10-31T02:12:56;18.77;;;11.63;;
68256;SDS011;55069;51.568;4.656;2022-10-31T02:15:24;20.00;;;10.70;;
68256;SDS011;55069;51.568;4.656;2022-10-31T02:17:51;15.50;;;10.55;;
68256;SDS011;55069;51.568;4.656;2022-10-31T02:20:18;21.00;;;11.85;;
68256;SDS011;55069;51.568;4.656;2022-10-31T02:31:13;15.93;;;10.95;;
68256;SDS011;55069;51.568;4.656;2022-10-31T02:33:43;18.30;;;11.17;;
68256;SDS011;55069;51.568;4.656;2022-10-31T02:36:39;18.88;;;11.05;;
68256;SDS011;55069;51.568;4.656;2022-10-31T02:44:44;21.67;;;12.02;;
68256;SDS011;55069;51.568;4.656;2022-10-31T02:47:17;20.27;;;12.60;;
68256;SDS011;55069;51.568;4.656;2022-10-31T02:49:48;23.65;;;12.32;;
68256;SDS011;55069;51.568;4.656;2022-10-31T02:52:25;20.02;;;12.43;;
68256;SDS011;55069;51.568;4.656;2022-10-31T02:54:51;22.75;;;12.75;;
68256;SDS011;55069;51.568;4.656;2022-10-31T02:57:23;21.27;;;12.93;;
68256;SDS011;55069;51.568;4.656;2022-10-31T02:59:53;15.40;;;10.50;;
68256;SDS011;55069;51.568;4.656;2022-10-31T03:05:14;13.07;;;10.02;;
68256;SDS011;55069;51.568;4.656;2022-10-31T03:10:54;15.98;;;9.48;;
68256;SDS011;55069;51.568;4.656;2022-10-31T03:15:50;18.52;;;11.45;;
68256;SDS011;55069;51.568;4.656;2022-10-31T03:18:24;16.27;;;10.57;;
68256;SDS011;55069;51.568;4.656;2022-10-31T03:20:56;17.85;;;9.57;;
68256;SDS011;55069;51.568;4.656;2022-10-31T03:23:29;15.25;;;9.25;;
68256;SDS011;55069;51.568;4.656;2022-10-31T03:25:57;11.67;;;8.77;;
68256;SDS011;55069;51.568;4.656;2022-10-31T03:28:28;16.10;;;8.50;;
68256;SDS011;55069;51.568;4.656;2022-10-31T03:30:55;16.63;;;9.02;;
68256;SDS011;55069;51.568;4.656;2022-10-31T03:33:24;14.80;;;9.73;;
68256;SDS011;55069;51.568;4.656;2022-10-31T03:35:55;13.60;;;8.23;;
68256;SDS011;55069;51.568;4.656;2022-10-31T03:38:23;14.63;;;9.17;;
68256;SDS011;55069;51.568;4.656;2022-10-31T03:40:49;14.15;;;9.40;;
68256;SDS011;55069;51.568;4.656;2022-10-31T03:43:18;17.95;;;9.60;;
68256;SDS011;55069;51.568;4.656;2022-10-31T03:45:49;14.10;;;9.67;;
68256;SDS011;55069;51.568;4.656;2022-10-31T03:48:17;15.02;;;9.35;;
68256;SDS011;55069;51.568;4.656;2022-10-31T03:53:24;11.10;;;7.50;;
68256;SDS011;55069;51.568;4.656;2022-10-31T03:56:00;11.57;;;7.80;;
68256;SDS011;55069;51.568;4.656;2022-10-31T03:58:35;12.70;;;8.53;;
68256;SDS011;55069;51.568;4.656;2022-10-31T04:01:05;15.27;;;8.40;;
68256;SDS011;55069;51.568;4.656;2022-10-31T04:03:36;13.25;;;8.73;;
68256;SDS011;55069;51.568;4.656;2022-10-31T04:06:05;15.52;;;7.65;;
68256;SDS011;55069;51.568;4.656;2022-10-31T04:08:43;15.32;;;7.80;;
68256;SDS011;55069;51.568;4.656;2022-10-31T04:11:15;12.43;;;8.00;;
68256;SDS011;55069;51.568;4.656;2022-10-31T04:13:50;12.27;;;8.32;;
68256;SDS011;55069;51.568;4.656;2022-10-31T04:16:21;10.00;;;7.43;;
68256;SDS011;55069;51.568;4.656;2022-10-31T04:18:49;11.93;;;7.70;;
68256;SDS011;55069;51.568;4.656;2022-10-31T04:21:15;14.07;;;8.40;;
68256;SDS011;55069;51.568;4.656;2022-10-31T04:23:41;11.70;;;8.10;;
68256;SDS011;55069;51.568;4.656;2022-10-31T04:26:15;18.05;;;8.30;;
68256;SDS011;55069;51.568;4.656;2022-10-31T04:28:42;14.10;;;7.35;;
68256;SDS011;55069;51.568;4.656;2022-10-31T04:31:09;12.07;;;8.10;;
68256;SDS011;55069;51.568;4.656;2022-10-31T04:33:36;11.55;;;8.18;;
68256;SDS011;55069;51.568;4.656;2022-10-31T04:36:02;11.70;;;8.38;;
68256;SDS011;55069;51.568;4.656;2022-10-31T04:38:28;12.20;;;7.72;;
68256;SDS011;55069;51.568;4.656;2022-10-31T04:40:54;10.85;;;7.10;;
68256;SDS011;55069;51.568;4.656;2022-10-31T04:43:39;13.50;;;7.90;;
68256;SDS011;55069;51.568;4.656;2022-10-31T04:46:05;16.67;;;8.27;;
68256;SDS011;55069;51.568;4.656;2022-10-31T04:48:31;24.43;;;9.00;;
68256;SDS011;55069;51.568;4.656;2022-10-31T04:51:00;37.45;;;9.40;;
68256;SDS011;55069;51.568;4.656;2022-10-31T04:53:26;23.90;;;9.60;;
68256;SDS011;55069;51.568;4.656;2022-10-31T04:56:11;21.92;;;9.70;;
68256;SDS011;55069;51.568;4.656;2022-10-31T04:58:41;18.73;;;9.00;;
68256;SDS011;55069;51.568;4.656;2022-10-31T05:01:08;22.40;;;9.68;;
68256;SDS011;55069;51.568;4.656;2022-10-31T05:03:33;13.93;;;8.45;;
68256;SDS011;55069;51.568;4.656;2022-10-31T05:05:59;18.92;;;9.07;;
68256;SDS011;55069;51.568;4.656;2022-10-31T05:08:24;13.47;;;8.63;;
68256;SDS011;55069;51.568;4.656;2022-10-31T05:10:51;18.35;;;8.25;;
68256;SDS011;55069;51.568;4.656;2022-10-31T05:13:17;15.50;;;8.43;;
68256;SDS011;55069;51.568;4.656;2022-10-31T05:15:43;19.95;;;9.35;;
68256;SDS011;55069;51.568;4.656;2022-10-31T05:18:17;12.82;;;8.20;;
68256;SDS011;55069;51.568;4.656;2022-10-31T05:21:03;12.50;;;8.07;;
68256;SDS011;55069;51.568;4.656;2022-10-31T05:23:33;15.30;;;8.60;;
68256;SDS011;55069;51.568;4.656;2022-10-31T05:25:59;15.15;;;8.95;;
68256;SDS011;55069;51.568;4.656;2022-10-31T05:28:25;19.30;;;8.97;;
68256;SDS011;55069;51.568;4.656;2022-10-31T05:30:50;30.35;;;9.93;;
68256;SDS011;55069;51.568;4.656;2022-10-31T05:33:16;24.50;;;8.93;;
68256;SDS011;55069;51.568;4.656;2022-10-31T05:36:04;20.30;;;8.98;;
68256;SDS011;55069;51.568;4.656;2022-10-31T05:39:08;49.90;;;8.68;;
68256;SDS011;55069;51.568;4.656;2022-10-31T05:41:39;28.92;;;8.85;;
68256;SDS011;55069;51.568;4.656;2022-10-31T05:44:20;38.10;;;8.17;;
68256;SDS011;55069;51.568;4.656;2022-10-31T05:47:06;39.40;;;9.35;;
68256;SDS011;55069;51.568;4.656;2022-10-31T05:49:50;22.65;;;7.65;;
68256;SDS011;55069;51.568;4.656;2022-10-31T05:52:22;31.55;;;8.13;;
68256;SDS011;55069;51.568;4.656;2022-10-31T05:54:58;78.50;;;11.18;;
68256;SDS011;55069;51.568;4.656;2022-10-31T05:57:24;33.33;;;8.70;;
68256;SDS011;55069;51.568;4.656;2022-10-31T05:59:51;24.23;;;9.25;;
68256;SDS011;55069;51.568;4.656;2022-10-31T06:02:21;14.82;;;8.38;;
68256;SDS011;55069;51.568;4.656;2022-10-31T06:05:13;15.23;;;9.00;;
68256;SDS011;55069;51.568;4.656;2022-10-31T06:07:40;13.87;;;8.47;;
68256;SDS011;55069;51.568;4.656;2022-10-31T06:10:07;13.23;;;8.88;;
68256;SDS011;55069;51.568;4.656;2022-10-31T06:12:34;13.10;;;8.70;;
68256;SDS011;55069;51.568;4.656;2022-10-31T06:15:25;11.35;;;8.13;;
68256;SDS011;55069;51.568;4.656;2022-10-31T06:18:02;14.00;;;8.73;;
68256;SDS011;55069;51.568;4.656;2022-10-31T06:20:32;12.80;;;9.37;;
68256;SDS011;55069;51.568;4.656;2022-10-31T06:23:02;13.77;;;9.57;;
68256;SDS011;55069;51.568;4.656;2022-10-31T06:25:30;20.27;;;9.90;;
68256;SDS011;55069;51.568;4.656;2022-10-31T06:27:56;15.38;;;9.20;;
68256;SDS011;55069;51.568;4.656;2022-10-31T06:30:28;14.63;;;9.27;;
68256;SDS011;55069;51.568;4.656;2022-10-31T06:32:54;17.15;;;9.68;;
68256;SDS011;55069;51.568;4.656;2022-10-31T06:35:20;24.05;;;11.77;;
68256;SDS011;55069;51.568;4.656;2022-10-31T06:37:52;18.87;;;10.90;;
68256;SDS011;55069;51.568;4.656;2022-10-31T06:40:35;23.17;;;10.40;;
68256;SDS011;55069;51.568;4.656;2022-10-31T06:43:20;25.30;;;12.23;;
68256;SDS011;55069;51.568;4.656;2022-10-31T06:45:47;33.17;;;11.88;;
68256;SDS011;55069;51.568;4.656;2022-10-31T06:48:25;35.95;;;12.52;;
68256;SDS011;55069;51.568;4.656;2022-10-31T06:51:17;28.10;;;12.73;;
68256;SDS011;55069;51.568;4.656;2022-10-31T06:53:42;26.27;;;12.55;;
68256;SDS011;55069;51.568;4.656;2022-10-31T06:56:10;47.97;;;14.32;;
68256;SDS011;55069;51.568;4.656;2022-10-31T06:58:56;27.47;;;14.53;;
68256;SDS011;55069;51.568;4.656;2022-10-31T07:01:41;29.90;;;13.88;;
68256;SDS011;55069;51.568;4.656;2022-10-31T07:04:08;29.02;;;13.82;;
68256;SDS011;55069;51.568;4.656;2022-10-31T07:06:35;25.47;;;13.50;;
68256;SDS011;55069;51.568;4.656;2022-10-31T07:09:00;27.17;;;12.85;;
68256;SDS011;55069;51.568;4.656;2022-10-31T07:11:26;28.27;;;14.27;;
68256;SDS011;55069;51.568;4.656;2022-10-31T07:13:54;27.57;;;13.47;;
68256;SDS011;55069;51.568;4.656;2022-10-31T07:16:20;27.60;;;14.68;;
68256;SDS011;55069;51.568;4.656;2022-10-31T07:18:45;27.20;;;13.90;;
68256;SDS011;55069;51.568;4.656;2022-10-31T07:21:11;24.42;;;13.98;;
68256;SDS011;55069;51.568;4.656;2022-10-31T07:23:37;27.57;;;15.20;;
68256;SDS011;55069;51.568;4.656;2022-10-31T07:26:23;26.67;;;15.35;;
68256;SDS011;55069;51.568;4.656;2022-10-31T07:28:48;25.90;;;14.33;;
68256;SDS011;55069;51.568;4.656;2022-10-31T07:31:18;27.45;;;15.65;;
68256;SDS011;55069;51.568;4.656;2022-10-31T07:33:43;29.93;;;15.73;;
68256;SDS011;55069;51.568;4.656;2022-10-31T07:36:38;26.15;;;15.50;;
68256;SDS011;55069;51.568;4.656;2022-10-31T07:39:04;25.27;;;15.88;;
68256;SDS011;55069;51.568;4.656;2022-10-31T07:41:32;27.95;;;16.50;;
68256;SDS011;55069;51.568;4.656;2022-10-31T07:43:58;27.13;;;16.27;;
68256;SDS011;55069;51.568;4.656;2022-10-31T07:46:42;28.33;;;17.60;;
68256;SDS011;55069;51.568;4.656;2022-10-31T07:49:26;29.45;;;17.90;;
68256;SDS011;55069;51.568;4.656;2022-10-31T07:52:20;34.05;;;17.38;;
68256;SDS011;55069;51.568;4.656;2022-10-31T07:55:18;30.63;;;18.75;;
68256;SDS011;55069;51.568;4.656;2022-10-31T07:57:47;34.50;;;19.40;;
68256;SDS011;55069;51.568;4.656;2022-10-31T08:00:21;31.30;;;19.23;;
68256;SDS011;55069;51.568;4.656;2022-10-31T08:02:48;32.35;;;18.00;;
68256;SDS011;55069;51.568;4.656;2022-10-31T08:05:42;33.05;;;19.25;;
68256;SDS011;55069;51.568;4.656;2022-10-31T08:08:25;33.78;;;19.38;;
68256;SDS011;55069;51.568;4.656;2022-10-31T08:10:53;33.55;;;18.90;;
68256;SDS011;55069;51.568;4.656;2022-10-31T08:13:20;35.13;;;19.67;;
68256;SDS011;55069;51.568;4.656;2022-10-31T08:15:49;30.30;;;19.52;;
68256;SDS011;55069;51.568;4.656;2022-10-31T08:18:20;36.88;;;20.85;;
68256;SDS011;55069;51.568;4.656;2022-10-31T08:20:49;33.97;;;19.88;;
68256;SDS011;55069;51.568;4.656;2022-10-31T08:23:15;31.33;;;20.00;;
68256;SDS011;55069;51.568;4.656;2022-10-31T08:25:42;30.37;;;18.80;;
68256;SDS011;55069;51.568;4.656;2022-10-31T08:28:08;36.42;;;22.42;;
68256;SDS011;55069;51.568;4.656;2022-10-31T08:30:38;37.40;;;21.55;;
68256;SDS011;55069;51.568;4.656;2022-10-31T08:33:23;36.40;;;21.07;;
68256;SDS011;55069;51.568;4.656;2022-10-31T08:36:15;36.28;;;20.85;;
68256;SDS011;55069;51.568;4.656;2022-10-31T08:39:18;36.55;;;21.90;;
68256;SDS011;55069;51.568;4.656;2022-10-31T08:41:44;38.53;;;22.40;;
68256;SDS011;55069;51.568;4.656;2022-10-31T08:44:11;40.83;;;22.80;;
68256;SDS011;55069;51.568;4.656;2022-10-31T08:46:37;41.55;;;22.25;;
68256;SDS011;55069;51.568;4.656;2022-10-31T08:49:03;41.83;;;23.00;;
68256;SDS011;55069;51.568;4.656;2022-10-31T08:51:28;36.78;;;20.85;;
68256;SDS011;55069;51.568;4.656;2022-10-31T08:53:55;37.80;;;22.70;;
68256;SDS011;55069;51.568;4.656;2022-10-31T08:56:55;36.33;;;22.13;;
68256;SDS011;55069;51.568;4.656;2022-10-31T08:59:36;40.08;;;22.40;;
68256;SDS011;55069;51.568;4.656;2022-10-31T09:02:20;40.55;;;22.65;;
68256;SDS011;55069;51.568;4.656;2022-10-31T09:04:48;43.15;;;22.45;;
68256;SDS011;55069;51.568;4.656;2022-10-31T09:07:13;40.60;;;23.53;;
68256;SDS011;55069;51.568;4.656;2022-10-31T09:09:39;36.72;;;21.98;;
68256;SDS011;55069;51.568;4.656;2022-10-31T09:12:04;38.45;;;22.42;;
68256;SDS011;55069;51.568;4.656;2022-10-31T09:14:49;39.22;;;21.42;;
68256;SDS011;55069;51.568;4.656;2022-10-31T09:17:22;38.80;;;21.60;;
68256;SDS011;55069;51.568;4.656;2022-10-31T09:20:11;35.38;;;22.42;;
68256;SDS011;55069;51.568;4.656;2022-10-31T09:22:37;37.03;;;22.25;;
68256;SDS011;55069;51.568;4.656;2022-10-31T09:25:03;38.20;;;21.60;;
68256;SDS011;55069;51.568;4.656;2022-10-31T09:27:29;37.92;;;22.25;;
68256;SDS011;55069;51.568;4.656;2022-10-31T09:29:56;38.40;;;23.77;;
68256;SDS011;55069;51.568;4.656;2022-10-31T09:32:21;32.40;;;21.47;;
68256;SDS011;55069;51.568;4.656;2022-10-31T09:34:47;34.78;;;22.05;;
68256;SDS011;55069;51.568;4.656;2022-10-31T09:37:17;35.93;;;21.20;;
68256;SDS011;55069;51.568;4.656;2022-10-31T09:39:43;35.97;;;22.35;;
68256;SDS011;55069;51.568;4.656;2022-10-31T09:47:40;39.50;;;21.60;;
68256;SDS011;55069;51.568;4.656;2022-10-31T09:50:39;33.50;;;22.17;;
68256;SDS011;55069;51.568;4.656;2022-10-31T09:55:56;44.17;;;25.42;;
68256;SDS011;55069;51.568;4.656;2022-10-31T09:58:28;43.33;;;24.80;;
68256;SDS011;55069;51.568;4.656;2022-10-31T10:00:58;40.77;;;22.93;;
68256;SDS011;55069;51.568;4.656;2022-10-31T10:03:33;41.20;;;22.08;;
68256;SDS011;55069;51.568;4.656;2022-10-31T10:06:34;40.47;;;21.58;;
68256;SDS011;55069;51.568;4.656;2022-10-31T10:09:42;39.35;;;21.55;;
68256;SDS011;55069;51.568;4.656;2022-10-31T10:26:21;36.10;;;20.42;;
68256;SDS011;55069;51.568;4.656;2022-10-31T10:29:07;35.97;;;20.43;;
68256;SDS011;55069;51.568;4.656;2022-10-31T10:31:54;36.28;;;20.65;;
68256;SDS011;55069;51.568;4.656;2022-10-31T10:34:35;39.40;;;20.40;;
68256;SDS011;55069;51.568;4.656;2022-10-31T10:40:00;38.15;;;20.15;;
68256;SDS011;55069;51.568;4.656;2022-10-31T10:49:16;44.05;;;24.02;;
68256;SDS011;55069;51.568;4.656;2022-10-31T10:57:26;52.83;;;27.30;;
68256;SDS011;55069;51.568;4.656;2022-10-31T11:00:25;47.70;;;26.75;;
68256;SDS011;55069;51.568;4.656;2022-10-31T11:02:53;48.53;;;28.20;;
68256;SDS011;55069;51.568;4.656;2022-10-31T11:06:02;47.15;;;27.92;;
68256;SDS011;55069;51.568;4.656;2022-10-31T11:08:10;47.88;;;28.80;;
68256;SDS011;55069;51.568;4.656;2022-10-31T11:10:36;54.97;;;28.70;;
68256;SDS011;55069;51.568;4.656;2022-10-31T11:15:31;56.50;;;29.70;;
68256;SDS011;55069;51.568;4.656;2022-10-31T11:18:00;55.57;;;30.37;;
68256;SDS011;55069;51.568;4.656;2022-10-31T11:20:36;50.72;;;29.95;;
68256;SDS011;55069;51.568;4.656;2022-10-31T11:23:14;59.22;;;30.00;;
68256;SDS011;55069;51.568;4.656;2022-10-31T11:25:59;54.38;;;30.15;;
68256;SDS011;55069;51.568;4.656;2022-10-31T11:28:29;55.92;;;29.13;;
68256;SDS011;55069;51.568;4.656;2022-10-31T11:31:07;53.50;;;30.43;;
68256;SDS011;55069;51.568;4.656;2022-10-31T11:33:44;54.22;;;31.08;;
68256;SDS011;55069;51.568;4.656;2022-10-31T11:38:48;53.85;;;31.08;;
68256;SDS011;55069;51.568;4.656;2022-10-31T11:41:31;52.83;;;30.38;;
68256;SDS011;55069;51.568;4.656;2022-10-31T11:44:03;57.20;;;30.63;;
68256;SDS011;55069;51.568;4.656;2022-10-31T11:47:00;51.13;;;29.10;;
68256;SDS011;55069;51.568;4.656;2022-10-31T11:52:05;56.90;;;30.50;;
68256;SDS011;55069;51.568;4.656;2022-10-31T11:54:47;55.60;;;28.83;;
68256;SDS011;55069;51.568;4.656;2022-10-31T11:59:53;51.15;;;28.10;;
68256;SDS011;55069;51.568;4.656;2022-10-31T12:02:21;55.22;;;29.15;;
68256;SDS011;55069;51.568;4.656;2022-10-31T12:04:53;56.33;;;30.17;;
68256;SDS011;55069;51.568;4.656;2022-10-31T12:07:22;52.90;;;29.30;;
68256;SDS011;55069;51.568;4.656;2022-10-31T12:09:49;58.10;;;28.70;;
68256;SDS011;55069;51.568;4.656;2022-10-31T12:15:22;53.92;;;29.33;;
68256;SDS011;55069;51.568;4.656;2022-10-31T12:23:21;54.43;;;29.70;;
68256;SDS011;55069;51.568;4.656;2022-10-31T12:40:57;58.75;;;30.77;;
68256;SDS011;55069;51.568;4.656;2022-10-31T12:43:18;58.10;;;30.60;;
68256;SDS011;55069;51.568;4.656;2022-10-31T12:45:55;54.22;;;29.15;;
68256;SDS011;55069;51.568;4.656;2022-10-31T12:51:05;63.93;;;31.27;;
68256;SDS011;55069;51.568;4.656;2022-10-31T12:59:40;61.42;;;30.45;;
68256;SDS011;55069;51.568;4.656;2022-10-31T13:05:05;67.00;;;31.23;;
68256;SDS011;55069;51.568;4.656;2022-10-31T13:08:22;59.67;;;30.08;;
68256;SDS011;55069;51.568;4.656;2022-10-31T13:10:31;57.95;;;29.25;;
68256;SDS011;55069;51.568;4.656;2022-10-31T13:13:19;62.13;;;30.52;;
68256;SDS011;55069;51.568;4.656;2022-10-31T13:15:55;70.22;;;29.67;;
68256;SDS011;55069;51.568;4.656;2022-10-31T13:18:27;59.03;;;29.77;;
68256;SDS011;55069;51.568;4.656;2022-10-31T13:20:57;59.78;;;30.13;;
68256;SDS011;55069;51.568;4.656;2022-10-31T13:25:58;59.88;;;29.42;;
68256;SDS011;55069;51.568;4.656;2022-10-31T13:29:29;60.40;;;28.30;;
68256;SDS011;55069;51.568;4.656;2022-10-31T13:31:40;53.27;;;28.37;;
68256;SDS011;55069;51.568;4.656;2022-10-31T13:34:21;56.90;;;28.90;;
68256;SDS011;55069;51.568;4.656;2022-10-31T13:37:00;60.20;;;29.02;;
68256;SDS011;55069;51.568;4.656;2022-10-31T13:39:33;55.15;;;27.90;;
68256;SDS011;55069;51.568;4.656;2022-10-31T13:45:11;55.80;;;28.17;;
68256;SDS011;55069;51.568;4.656;2022-10-31T13:48:01;60.30;;;28.35;;
68256;SDS011;55069;51.568;4.656;2022-10-31T13:51:00;56.88;;;28.13;;
68256;SDS011;55069;51.568;4.656;2022-10-31T13:58:33;56.13;;;29.07;;
68256;SDS011;55069;51.568;4.656;2022-10-31T14:03:43;54.85;;;29.20;;
68256;SDS011;55069;51.568;4.656;2022-10-31T14:06:11;60.85;;;30.42;;
68256;SDS011;55069;51.568;4.656;2022-10-31T14:08:39;59.40;;;29.50;;
68256;SDS011;55069;51.568;4.656;2022-10-31T14:11:19;66.80;;;31.03;;
68256;SDS011;55069;51.568;4.656;2022-10-31T14:13:49;54.40;;;29.23;;
68256;SDS011;55069;51.568;4.656;2022-10-31T14:16:20;75.65;;;30.17;;
68256;SDS011;55069;51.568;4.656;2022-10-31T14:18:58;66.25;;;30.77;;
68256;SDS011;55069;51.568;4.656;2022-10-31T14:23:53;68.83;;;30.97;;
68256;SDS011;55069;51.568;4.656;2022-10-31T14:28:49;54.13;;;28.90;;
68256;SDS011;55069;51.568;4.656;2022-10-31T14:39:31;48.25;;;25.73;;
68256;SDS011;55069;51.568;4.656;2022-10-31T14:50:47;46.37;;;25.43;;
68256;SDS011;55069;51.568;4.656;2022-10-31T14:53:22;55.25;;;25.08;;
68256;SDS011;55069;51.568;4.656;2022-10-31T14:55:52;47.63;;;24.45;;
68256;SDS011;55069;51.568;4.656;2022-10-31T14:58:29;42.38;;;23.48;;
68256;SDS011;55069;51.568;4.656;2022-10-31T15:01:02;50.70;;;25.30;;
68256;SDS011;55069;51.568;4.656;2022-10-31T15:03:36;52.40;;;25.10;;
68256;SDS011;55069;51.568;4.656;2022-10-31T15:06:11;46.30;;;25.35;;
68256;SDS011;55069;51.568;4.656;2022-10-31T15:08:39;46.80;;;24.75;;
68256;SDS011;55069;51.568;4.656;2022-10-31T15:11:09;42.92;;;24.27;;
68256;SDS011;55069;51.568;4.656;2022-10-31T15:13:44;45.15;;;24.55;;
68256;SDS011;55069;51.568;4.656;2022-10-31T15:16:13;51.47;;;25.07;;
68256;SDS011;55069;51.568;4.656;2022-10-31T15:18:46;48.13;;;25.15;;
68256;SDS011;55069;51.568;4.656;2022-10-31T15:21:17;46.00;;;24.38;;
68256;SDS011;55069;51.568;4.656;2022-10-31T15:23:45;44.08;;;24.48;;
68256;SDS011;55069;51.568;4.656;2022-10-31T15:26:18;43.58;;;24.38;;
68256;SDS011;55069;51.568;4.656;2022-10-31T15:28:46;51.43;;;25.30;;
68256;SDS011;55069;51.568;4.656;2022-10-31T15:31:23;51.28;;;24.77;;
68256;SDS011;55069;51.568;4.656;2022-10-31T15:33:48;44.67;;;24.58;;
68256;SDS011;55069;51.568;4.656;2022-10-31T15:36:22;45.50;;;24.70;;
68256;SDS011;55069;51.568;4.656;2022-10-31T15:38:49;45.95;;;23.40;;
68256;SDS011;55069;51.568;4.656;2022-10-31T15:41:27;51.42;;;24.90;;
68256;SDS011;55069;51.568;4.656;2022-10-31T15:43:57;44.80;;;23.65;;
68256;SDS011;55069;51.568;4.656;2022-10-31T15:46:28;54.10;;;23.40;;
68256;SDS011;55069;51.568;4.656;2022-10-31T15:48:54;52.65;;;22.88;;
68256;SDS011;55069;51.568;4.656;2022-10-31T15:51:27;42.50;;;23.25;;
68256;SDS011;55069;51.568;4.656;2022-10-31T15:53:56;47.28;;;22.67;;
68256;SDS011;55069;51.568;4.656;2022-10-31T15:56:24;43.80;;;21.75;;
68256;SDS011;55069;51.568;4.656;2022-10-31T15:58:53;41.10;;;20.13;;
68256;SDS011;55069;51.568;4.656;2022-10-31T16:03:57;35.63;;;18.98;;
68256;SDS011;55069;51.568;4.656;2022-10-31T16:06:28;39.10;;;19.48;;
68256;SDS011;55069;51.568;4.656;2022-10-31T16:08:55;33.58;;;18.65;;
68256;SDS011;55069;51.568;4.656;2022-10-31T16:13:56;36.78;;;17.67;;
68256;SDS011;55069;51.568;4.656;2022-10-31T16:16:22;38.20;;;18.58;;
68256;SDS011;55069;51.568;4.656;2022-10-31T16:18:49;33.20;;;18.13;;
68256;SDS011;55069;51.568;4.656;2022-10-31T16:21:27;44.70;;;19.02;;
68256;SDS011;55069;51.568;4.656;2022-10-31T16:24:01;36.13;;;17.85;;
68256;SDS011;55069;51.568;4.656;2022-10-31T16:26:30;39.92;;;18.65;;
68256;SDS011;55069;51.568;4.656;2022-10-31T16:28:57;37.17;;;20.03;;
68256;SDS011;55069;51.568;4.656;2022-10-31T16:31:35;42.28;;;18.08;;
68256;SDS011;55069;51.568;4.656;2022-10-31T16:34:23;38.20;;;17.63;;
68256;SDS011;55069;51.568;4.656;2022-10-31T16:36:49;31.58;;;17.33;;
68256;SDS011;55069;51.568;4.656;2022-10-31T16:39:14;39.03;;;18.40;;
68256;SDS011;55069;51.568;4.656;2022-10-31T16:41:43;30.25;;;17.38;;
68256;SDS011;55069;51.568;4.656;2022-10-31T16:46:46;39.90;;;18.38;;
68256;SDS011;55069;51.568;4.656;2022-10-31T16:49:12;34.80;;;17.70;;
68256;SDS011;55069;51.568;4.656;2022-10-31T16:51:38;41.83;;;18.38;;
68256;SDS011;55069;51.568;4.656;2022-10-31T16:54:03;32.77;;;17.40;;
68256;SDS011;55069;51.568;4.656;2022-10-31T16:56:30;36.50;;;18.77;;
68256;SDS011;55069;51.568;4.656;2022-10-31T16:58:57;34.30;;;17.40;;
68256;SDS011;55069;51.568;4.656;2022-10-31T17:01:24;36.40;;;17.60;;
68256;SDS011;55069;51.568;4.656;2022-10-31T17:03:50;32.70;;;17.15;;
68256;SDS011;55069;51.568;4.656;2022-10-31T17:06:15;42.97;;;18.00;;
68256;SDS011;55069;51.568;4.656;2022-10-31T17:08:41;33.57;;;16.50;;
68256;SDS011;55069;51.568;4.656;2022-10-31T17:11:08;34.63;;;17.27;;
68256;SDS011;55069;51.568;4.656;2022-10-31T17:13:40;37.08;;;17.83;;
68256;SDS011;55069;51.568;4.656;2022-10-31T17:16:06;31.47;;;16.30;;
68256;SDS011;55069;51.568;4.656;2022-10-31T17:18:32;34.60;;;17.90;;
68256;SDS011;55069;51.568;4.656;2022-10-31T17:20:58;36.63;;;18.67;;
68256;SDS011;55069;51.568;4.656;2022-10-31T17:23:26;30.63;;;16.33;;
68256;SDS011;55069;51.568;4.656;2022-10-31T17:25:52;36.40;;;18.00;;
68256;SDS011;55069;51.568;4.656;2022-10-31T17:28:18;45.97;;;18.05;;
68256;SDS011;55069;51.568;4.656;2022-10-31T17:30:44;38.17;;;17.60;;
68256;SDS011;55069;51.568;4.656;2022-10-31T17:33:11;34.63;;;17.98;;